Time;durP1;ratioP1;P1;durP2;ratioP2;P2;SDS_P1;SDS_P2;PMS_P1;PMS_P2;Temp;Humidity;BMP_temperature;BMP_pressure;BME280_temperature;BME280_humidity;BME280_pressure;Samples;Min_cycle;Max_cycle;Signal;HPM_P1;HPM_P2
2021/11/12 00:04:46;;;;;;;13.38;11.07;;;;;;;;;;5100535;28;20542;-83
2021/11/12 00:12:57;;;;;;;13.60;10.98;;;;;;;;;;5100240;28;20204;-84
2021/11/12 00:15:24;;;;;;;10.95;9.18;;;;;;;;;;5101518;28;20676;-85
2021/11/12 00:17:52;;;;;;;10.88;8.02;;;;;;;;;;5103037;28;20199;-83
2021/11/12 00:20:19;;;;;;;9.63;8.63;;;;;;;;;;5102851;28;20319;-85
2021/11/12 00:22:49;;;;;;;7.32;6.55;;;;;;;;;;5103871;28;20193;-83
2021/11/12 00:25:17;;;;;;;10.27;8.13;;;;;;;;;;5101564;28;20193;-84
2021/11/12 00:27:48;;;;;;;10.35;8.73;;;;;;;;;;5101450;28;20184;-84
2021/11/12 00:30:26;;;;;;;12.70;10.63;;;;;;;;;;5102570;28;20227;-85
2021/11/12 00:33:02;;;;;;;12.07;9.52;;;;;;;;;;5101031;28;20203;-84
2021/11/12 00:35:36;;;;;;;10.15;7.82;;;;;;;;;;5101278;28;20646;-85
2021/11/12 00:38:07;;;;;;;11.63;10.05;;;;;;;;;;5099801;28;20723;-84
2021/11/12 00:40:42;;;;;;;10.43;8.65;;;;;;;;;;5101251;28;20219;-85
2021/11/12 00:43:26;;;;;;;12.27;9.45;;;;;;;;;;5100913;28;20252;-84
2021/11/12 00:46:08;;;;;;;10.93;9.30;;;;;;;;;;5101405;28;20184;-84
2021/11/12 00:48:38;;;;;;;8.50;7.60;;;;;;;;;;5100786;28;20199;-84
2021/11/12 00:51:12;;;;;;;6.80;6.10;;;;;;;;;;5100074;28;20314;-84
2021/11/12 00:53:49;;;;;;;4.85;4.35;;;;;;;;;;5100428;28;20250;-86
2021/11/12 00:56:17;;;;;;;6.13;5.53;;;;;;;;;;5102114;28;20184;-84
2021/11/12 00:58:48;;;;;;;4.72;4.28;;;;;;;;;;5101234;28;20195;-84
2021/11/12 01:01:16;;;;;;;4.95;4.30;;;;;;;;;;5100920;28;20221;-83
2021/11/12 01:03:44;;;;;;;4.07;3.78;;;;;;;;;;5101708;28;20570;-84
2021/11/12 01:06:12;;;;;;;6.38;5.78;;;;;;;;;;5099669;28;20192;-86
2021/11/12 01:08:40;;;;;;;5.20;4.78;;;;;;;;;;5099799;28;20185;-83
2021/11/12 01:11:08;;;;;;;10.77;8.40;;;;;;;;;;5100091;28;20235;-84
2021/11/12 01:13:36;;;;;;;11.05;9.90;;;;;;;;;;5100253;28;20196;-84
2021/11/12 01:16:06;;;;;;;13.65;10.85;;;;;;;;;;5099715;28;20667;-85
2021/11/12 01:18:36;;;;;;;11.35;10.13;;;;;;;;;;5099853;28;20192;-84
2021/11/12 01:21:04;;;;;;;13.48;10.57;;;;;;;;;;5100750;28;20217;-84
2021/11/12 01:23:33;;;;;;;12.80;10.13;;;;;;;;;;5101801;28;20812;-84
2021/11/12 01:26:02;;;;;;;11.60;8.93;;;;;;;;;;5101689;28;20199;-85
2021/11/12 01:28:30;;;;;;;10.20;9.20;;;;;;;;;;5101917;28;20199;-84
2021/11/12 01:30:58;;;;;;;8.48;7.68;;;;;;;;;;5101223;28;20228;-84
2021/11/12 01:33:30;;;;;;;5.88;5.25;;;;;;;;;;5102177;28;20188;-84
2021/11/12 01:36:05;;;;;;;6.07;5.47;;;;;;;;;;5101568;28;20204;-83
2021/11/12 01:38:33;;;;;;;6.47;5.32;;;;;;;;;;5100589;28;20191;-84
2021/11/12 01:41:00;;;;;;;5.22;4.72;;;;;;;;;;5100735;28;20222;-84
2021/11/12 01:43:37;;;;;;;5.38;4.88;;;;;;;;;;5101257;28;20208;-83
2021/11/12 01:46:25;;;;;;;6.35;5.70;;;;;;;;;;5102033;28;20238;-84
2021/11/12 01:51:50;;;;;;;7.32;6.00;;;;;;;;;;5101145;28;20642;-84
2021/11/12 01:54:36;;;;;;;6.18;5.55;;;;;;;;;;5100885;28;20189;-83
2021/11/12 02:00:12;;;;;;;12.02;10.43;;;;;;;;;;4997186;28;20629;-84
2021/11/12 02:02:42;;;;;;;9.38;7.60;;;;;;;;;;4997137;28;20584;-84
2021/11/12 02:05:12;;;;;;;9.18;7.47;;;;;;;;;;5037442;28;20204;-84
2021/11/12 02:07:41;;;;;;;11.45;8.50;;;;;;;;;;5077989;28;20639;-85
2021/11/12 02:10:13;;;;;;;7.60;6.40;;;;;;;;;;5093722;28;20234;-84
2021/11/12 02:12:51;;;;;;;5.80;5.22;;;;;;;;;;5098731;28;20382;-84
2021/11/12 02:15:18;;;;;;;7.60;6.63;;;;;;;;;;5098520;28;20184;-84
2021/11/12 02:18:00;;;;;;;5.68;4.60;;;;;;;;;;5097158;28;20192;-83
2021/11/12 02:20:35;;;;;;;4.95;4.28;;;;;;;;;;5098342;28;20215;-84
2021/11/12 02:23:06;;;;;;;3.78;3.47;;;;;;;;;;5098156;28;20294;-84
2021/11/12 02:25:38;;;;;;;5.28;4.68;;;;;;;;;;5098053;28;20208;-84
2021/11/12 02:28:09;;;;;;;6.43;5.38;;;;;;;;;;5097433;28;20723;-83
2021/11/12 02:30:38;;;;;;;6.05;5.45;;;;;;;;;;5097401;28;20242;-84
2021/11/12 02:33:11;;;;;;;6.53;4.50;;;;;;;;;;5097432;28;20224;-84
2021/11/12 02:35:43;;;;;;;4.90;3.65;;;;;;;;;;5097519;28;20200;-84
2021/11/12 02:38:13;;;;;;;3.88;3.17;;;;;;;;;;5096712;28;20189;-84
2021/11/12 02:40:41;;;;;;;3.50;3.20;;;;;;;;;;5096289;28;20740;-85
2021/11/12 02:43:15;;;;;;;4.18;3.22;;;;;;;;;;5097144;28;20634;-84
2021/11/12 02:45:43;;;;;;;4.28;3.85;;;;;;;;;;5097122;28;20196;-85
2021/11/12 02:48:13;;;;;;;5.07;4.57;;;;;;;;;;5096205;28;20189;-85
2021/11/12 02:50:41;;;;;;;6.68;5.68;;;;;;;;;;5097989;28;20656;-86
2021/11/12 02:53:11;;;;;;;8.05;6.28;;;;;;;;;;5102716;28;20245;-85
2021/11/12 02:55:40;;;;;;;5.20;4.68;;;;;;;;;;5102796;28;20224;-86
2021/11/12 02:58:09;;;;;;;3.70;3.40;;;;;;;;;;5102980;28;20199;-85
2021/11/12 03:00:41;;;;;;;3.88;3.45;;;;;;;;;;5102990;28;20269;-86
2021/11/12 03:03:10;;;;;;;5.07;4.63;;;;;;;;;;5103694;28;20210;-85
2021/11/12 03:05:39;;;;;;;4.32;3.88;;;;;;;;;;5103539;28;20176;-85
2021/11/12 03:08:06;;;;;;;8.80;5.85;;;;;;;;;;5103624;28;20188;-85
2021/11/12 03:10:36;;;;;;;5.15;4.07;;;;;;;;;;5103461;28;20224;-86
2021/11/12 03:13:07;;;;;;;4.35;3.90;;;;;;;;;;5103699;28;20220;-86
2021/11/12 03:15:35;;;;;;;8.30;6.90;;;;;;;;;;5103483;28;20187;-86
2021/11/12 03:18:05;;;;;;;11.70;8.73;;;;;;;;;;5103365;28;20184;-86
2021/11/12 03:20:34;;;;;;;9.80;8.57;;;;;;;;;;5102928;28;20712;-84
2021/11/12 03:23:05;;;;;;;7.90;6.85;;;;;;;;;;5097324;28;20188;-84
2021/11/12 03:25:40;;;;;;;6.63;5.93;;;;;;;;;;5096773;28;20185;-84
2021/11/12 03:28:15;;;;;;;5.65;4.75;;;;;;;;;;5096614;28;20677;-83
2021/11/12 03:56:28;;;;;;;4.05;3.60;;;;;;;;;;5105780;28;20275;-85
2021/11/12 04:01:45;;;;;;;5.97;4.28;;;;;;;;;;5103424;28;20211;-85
2021/11/12 04:04:30;;;;;;;5.78;4.30;;;;;;;;;;5101379;28;20197;-85
2021/11/12 04:07:05;;;;;;;5.38;4.13;;;;;;;;;;5102081;28;20192;-85
2021/11/12 04:18:05;;;;;;;4.50;4.10;;;;;;;;;;5097731;28;20557;-83
2021/11/12 05:10:56;;;;;;;7.63;6.88;;;;;;;;;;5096023;28;20303;-84
2021/11/12 05:44:06;;;;;;;8.70;6.47;;;;;;;;;;5077613;28;20207;-83
2021/11/12 05:46:42;;;;;;;10.68;7.20;;;;;;;;;;5095558;28;20192;-84
2021/11/12 05:52:12;;;;;;;10.40;7.57;;;;;;;;;;5093783;28;20208;-85
2021/11/12 05:57:27;;;;;;;10.18;7.43;;;;;;;;;;5095703;28;20258;-86
2021/11/12 05:59:55;;;;;;;9.57;7.93;;;;;;;;;;5095242;28;20224;-85
2021/11/12 06:02:23;;;;;;;7.60;6.28;;;;;;;;;;5095028;28;20186;-85
2021/11/12 06:04:51;;;;;;;9.75;8.70;;;;;;;;;;5096059;28;20188;-84
2021/11/12 06:07:19;;;;;;;10.80;8.57;;;;;;;;;;5094940;28;20192;-84
2021/11/12 06:09:48;;;;;;;9.38;8.35;;;;;;;;;;5095157;28;20216;-84
2021/11/12 06:12:15;;;;;;;7.93;6.95;;;;;;;;;;5095686;28;20643;-83
2021/11/12 06:14:43;;;;;;;10.38;7.65;;;;;;;;;;5096200;28;20207;-84
2021/11/12 06:17:11;;;;;;;8.63;7.63;;;;;;;;;;5096196;28;20191;-84
2021/11/12 06:19:38;;;;;;;8.13;7.32;;;;;;;;;;5096274;28;20196;-84
2021/11/12 06:22:06;;;;;;;8.07;7.28;;;;;;;;;;5096970;28;20180;-82
2021/11/12 06:24:33;;;;;;;8.13;7.30;;;;;;;;;;5093822;28;20184;-85
2021/11/12 06:27:04;;;;;;;10.25;7.78;;;;;;;;;;5094768;28;20187;-85
2021/11/12 06:29:31;;;;;;;7.38;6.40;;;;;;;;;;5094138;28;20219;-85
2021/11/12 06:32:00;;;;;;;7.90;6.55;;;;;;;;;;5093561;28;20652;-84
2021/11/12 06:34:29;;;;;;;7.90;7.10;;;;;;;;;;5094423;28;20212;-84
2021/11/12 06:36:57;;;;;;;10.98;8.68;;;;;;;;;;5094247;28;20185;-85
2021/11/12 06:39:25;;;;;;;6.15;5.25;;;;;;;;;;5095373;28;20211;-85
2021/11/12 06:41:56;;;;;;;9.20;6.75;;;;;;;;;;5095856;28;20274;-85
2021/11/12 06:50:18;;;;;;;10.07;7.60;;;;;;;;;;5013106;28;20230;-86
2021/11/12 06:52:49;;;;;;;7.75;6.00;;;;;;;;;;5064257;28;20205;-85
2021/11/12 06:55:18;;;;;;;7.18;6.47;;;;;;;;;;5096530;28;20215;-85
2021/11/12 06:57:48;;;;;;;8.27;6.60;;;;;;;;;;5096745;28;20187;-85
2021/11/12 07:00:21;;;;;;;7.45;6.30;;;;;;;;;;5096593;28;20220;-86
2021/11/12 07:02:51;;;;;;;7.07;6.38;;;;;;;;;;5096892;28;20225;-86
2021/11/12 07:05:25;;;;;;;9.93;7.63;;;;;;;;;;5097769;28;20227;-85
2021/11/12 07:07:53;;;;;;;8.38;7.47;;;;;;;;;;5094496;28;20200;-85
2021/11/12 07:10:21;;;;;;;8.23;6.97;;;;;;;;;;5093232;28;20299;-84
2021/11/12 07:12:51;;;;;;;7.60;6.90;;;;;;;;;;5094466;28;20184;-85
2021/11/12 07:15:21;;;;;;;8.90;6.88;;;;;;;;;;5093647;28;20219;-85
2021/11/12 07:17:50;;;;;;;8.57;7.28;;;;;;;;;;5077683;28;20228;-86
2021/11/12 07:20:24;;;;;;;7.68;6.88;;;;;;;;;;5093641;28;20220;-85
2021/11/12 07:22:51;;;;;;;10.50;8.30;;;;;;;;;;5094521;28;20180;-86
2021/11/12 07:25:20;;;;;;;7.57;6.88;;;;;;;;;;5097771;28;20189;-85
2021/11/12 07:27:50;;;;;;;10.95;8.25;;;;;;;;;;5096402;28;20193;-85
2021/11/12 07:30:20;;;;;;;8.50;7.70;;;;;;;;;;5097644;28;20220;-85
2021/11/12 07:32:50;;;;;;;7.35;6.65;;;;;;;;;;5099079;28;20204;-85
2021/11/12 07:35:29;;;;;;;8.32;7.50;;;;;;;;;;5097475;28;20596;-86
2021/11/12 07:38:02;;;;;;;7.57;6.78;;;;;;;;;;5097663;28;20219;-85
2021/11/12 07:40:47;;;;;;;9.13;6.97;;;;;;;;;;5098108;28;20302;-87
2021/11/12 07:44:02;;;;;;;7.93;6.97;;;;;;;;;;5098708;28;20275;-87
2021/11/12 07:46:15;;;;;;;9.20;7.57;;;;;;;;;;5097793;28;20546;-85
2021/11/12 07:48:50;;;;;;;8.93;7.47;;;;;;;;;;5099342;28;20553;-86
2021/11/12 07:51:19;;;;;;;9.25;7.00;;;;;;;;;;5097382;28;20212;-86
2021/11/12 07:53:48;;;;;;;8.65;7.75;;;;;;;;;;5099471;28;20249;-85
2021/11/12 07:56:15;;;;;;;10.32;7.88;;;;;;;;;;5099996;28;20271;-87
2021/11/12 07:58:45;;;;;;;7.50;6.75;;;;;;;;;;5099297;28;20569;-86
2021/11/12 08:01:14;;;;;;;7.65;6.63;;;;;;;;;;5097963;28;20216;-86
2021/11/12 08:03:43;;;;;;;9.05;8.07;;;;;;;;;;5099838;28;20185;-86
2021/11/12 08:06:15;;;;;;;6.38;5.78;;;;;;;;;;5099906;28;20558;-86
2021/11/12 08:08:54;;;;;;;6.32;5.30;;;;;;;;;;5096988;28;20303;-87
2021/11/12 08:11:26;;;;;;;5.75;5.22;;;;;;;;;;5097672;28;20216;-86
2021/11/12 08:14:07;;;;;;;8.50;6.57;;;;;;;;;;5096673;28;20726;-87
2021/11/12 08:17:01;;;;;;;8.98;7.00;;;;;;;;;;5100743;28;20218;-86
2021/11/12 08:19:35;;;;;;;7.22;6.47;;;;;;;;;;5102701;28;20201;-87
2021/11/12 08:22:05;;;;;;;6.50;5.75;;;;;;;;;;5102028;28;20690;-87
2021/11/12 08:24:40;;;;;;;8.80;7.03;;;;;;;;;;5103445;28;20188;-87
2021/11/12 08:32:53;;;;;;;6.50;5.60;;;;;;;;;;5069042;28;20266;-87
2021/11/12 08:38:18;;;;;;;6.22;5.63;;;;;;;;;;5102488;28;20235;-87
2021/11/12 08:41:01;;;;;;;7.68;6.82;;;;;;;;;;5104368;28;20287;-87
2021/11/12 08:43:39;;;;;;;6.72;6.05;;;;;;;;;;5103896;28;20835;-87
2021/11/12 08:46:16;;;;;;;7.15;5.60;;;;;;;;;;5103929;28;20253;-85
2021/11/12 08:48:54;;;;;;;6.10;5.47;;;;;;;;;;5100487;28;20200;-86
2021/11/12 08:51:23;;;;;;;5.28;4.78;;;;;;;;;;5103221;28;20227;-86
2021/11/12 08:53:58;;;;;;;6.35;5.57;;;;;;;;;;5100598;28;20188;-86
2021/11/12 08:56:25;;;;;;;8.65;6.25;;;;;;;;;;5100051;28;20216;-87
2021/11/12 08:58:56;;;;;;;6.80;6.15;;;;;;;;;;5100720;28;20186;-86
2021/11/12 09:01:25;;;;;;;6.68;5.82;;;;;;;;;;5104683;28;20224;-86
2021/11/12 09:03:55;;;;;;;6.82;6.07;;;;;;;;;;5104920;28;20204;-85
2021/11/12 09:06:25;;;;;;;6.13;5.50;;;;;;;;;;5104778;28;20200;-87
2021/11/12 09:08:53;;;;;;;5.63;5.00;;;;;;;;;;5088709;28;20263;-86
2021/11/12 09:11:21;;;;;;;5.00;4.50;;;;;;;;;;5100988;28;20228;-87
2021/11/12 09:13:51;;;;;;;5.15;4.65;;;;;;;;;;5102685;28;20246;-86
2021/11/12 09:16:26;;;;;;;6.60;5.90;;;;;;;;;;5101019;28;20220;-87
2021/11/12 09:18:55;;;;;;;5.43;4.88;;;;;;;;;;5102459;28;20196;-87
2021/11/12 09:21:22;;;;;;;4.95;4.45;;;;;;;;;;5099034;28;20295;-86
2021/11/12 09:23:50;;;;;;;5.25;4.75;;;;;;;;;;5097428;28;20206;-86
2021/11/12 09:26:17;;;;;;;4.20;3.80;;;;;;;;;;5095548;28;20650;-85
2021/11/12 09:28:45;;;;;;;6.10;5.50;;;;;;;;;;5101053;28;20200;-87
2021/11/12 09:31:12;;;;;;;8.30;6.68;;;;;;;;;;5102851;28;20586;-87
2021/11/12 09:33:40;;;;;;;5.45;4.90;;;;;;;;;;5105583;28;20295;-87
2021/11/12 09:36:12;;;;;;;5.22;4.72;;;;;;;;;;5104630;28;20220;-86
2021/11/12 09:38:43;;;;;;;5.32;4.82;;;;;;;;;;5105109;28;20208;-86
2021/11/12 09:41:12;;;;;;;5.35;4.85;;;;;;;;;;5104038;28;20228;-85
2021/11/12 09:43:40;;;;;;;6.68;6.05;;;;;;;;;;5103630;28;20216;-87
2021/11/12 09:46:10;;;;;;;7.00;5.75;;;;;;;;;;5105718;28;20192;-87
2021/11/12 09:48:38;;;;;;;7.50;5.32;;;;;;;;;;5105179;28;20204;-86
2021/11/12 09:51:06;;;;;;;6.20;5.60;;;;;;;;;;5103709;28;20232;-87
2021/11/12 09:53:35;;;;;;;6.53;5.60;;;;;;;;;;5103826;28;20197;-87
2021/11/12 09:56:03;;;;;;;8.00;5.72;;;;;;;;;;5104654;28;20216;-86
2021/11/12 09:58:33;;;;;;;7.03;6.07;;;;;;;;;;5104169;28;20231;-87
2021/11/12 10:01:00;;;;;;;6.63;5.47;;;;;;;;;;5104271;28;20212;-87
2021/11/12 10:03:33;;;;;;;6.85;6.13;;;;;;;;;;5104340;28;20215;-86
2021/11/12 10:06:19;;;;;;;5.68;5.10;;;;;;;;;;5101746;28;20542;-86
2021/11/12 10:08:49;;;;;;;8.05;5.97;;;;;;;;;;5101613;28;20203;-87
2021/11/12 10:11:24;;;;;;;5.32;4.82;;;;;;;;;;5106172;28;20235;-87
2021/11/12 10:13:59;;;;;;;8.10;6.18;;;;;;;;;;5104264;28;20232;-86
2021/11/12 10:16:36;;;;;;;6.03;5.45;;;;;;;;;;5105319;28;20543;-87
2021/11/12 10:19:14;;;;;;;5.45;4.65;;;;;;;;;;5104760;28;20196;-87
2021/11/12 10:21:46;;;;;;;6.63;5.95;;;;;;;;;;5106878;28;20852;-87
2021/11/12 10:24:19;;;;;;;6.50;5.57;;;;;;;;;;5107958;28;20193;-88
2021/11/12 10:26:50;;;;;;;6.22;5.30;;;;;;;;;;5107400;28;20215;-88
2021/11/12 10:29:21;;;;;;;7.22;5.45;;;;;;;;;;5108533;28;20610;-87
2021/11/12 10:31:51;;;;;;;6.30;5.70;;;;;;;;;;5108056;28;20239;-87
2021/11/12 10:34:21;;;;;;;6.88;5.47;;;;;;;;;;5108226;28;20200;-87
2021/11/12 10:37:11;;;;;;;7.97;6.38;;;;;;;;;;5107172;28;20220;-87
2021/11/12 10:39:42;;;;;;;7.15;6.05;;;;;;;;;;5108681;28;20200;-85
2021/11/12 10:42:14;;;;;;;8.55;7.18;;;;;;;;;;5109539;28;20187;-85
2021/11/12 10:44:46;;;;;;;7.22;5.90;;;;;;;;;;5107529;28;20200;-86
2021/11/12 10:47:16;;;;;;;9.10;6.53;;;;;;;;;;5108244;28;20180;-87
2021/11/12 10:49:45;;;;;;;7.05;6.18;;;;;;;;;;5108673;28;20299;-88
2021/11/12 10:52:15;;;;;;;7.28;6.50;;;;;;;;;;5108957;28;20204;-87
2021/11/12 10:54:57;;;;;;;6.72;6.13;;;;;;;;;;5107316;28;20220;-88
2021/11/12 10:57:29;;;;;;;8.63;7.57;;;;;;;;;;5105689;28;20216;-87
2021/11/12 11:00:04;;;;;;;7.97;6.47;;;;;;;;;;5105544;28;20239;-88
2021/11/12 11:02:38;;;;;;;7.85;6.07;;;;;;;;;;5108546;28;20188;-84
2021/11/12 11:05:09;;;;;;;6.68;6.00;;;;;;;;;;5107444;28;20196;-87
2021/11/12 11:07:37;;;;;;;6.95;5.93;;;;;;;;;;5108159;28;20228;-88
2021/11/12 11:10:20;;;;;;;10.75;8.60;;;;;;;;;;5109355;28;20292;-85
2021/11/12 11:12:54;;;;;;;10.05;9.05;;;;;;;;;;5108325;28;20200;-88
2021/11/12 11:15:34;;;;;;;8.32;6.63;;;;;;;;;;5096642;28;20200;-88
2021/11/12 11:18:23;;;;;;;8.00;7.20;;;;;;;;;;5106817;28;20235;-88
2021/11/12 11:21:00;;;;;;;8.82;7.30;;;;;;;;;;5089935;28;20217;-89
2021/11/12 11:23:30;;;;;;;7.60;6.25;;;;;;;;;;5087966;28;20203;-88
2021/11/12 11:26:04;;;;;;;8.43;7.47;;;;;;;;;;5083738;28;20232;-86
2021/11/12 11:28:39;;;;;;;9.20;7.18;;;;;;;;;;5081794;28;20222;-86
2021/11/12 11:31:09;;;;;;;5.68;5.00;;;;;;;;;;5082353;28;20235;-88
2021/11/12 11:33:40;;;;;;;5.28;4.80;;;;;;;;;;5083285;28;20718;-88
2021/11/12 11:36:11;;;;;;;8.13;7.03;;;;;;;;;;5082957;28;20209;-87
2021/11/12 11:38:41;;;;;;;8.70;7.88;;;;;;;;;;5083033;28;20204;-87
2021/11/12 11:41:16;;;;;;;9.70;7.20;;;;;;;;;;5082223;28;20227;-86
2021/11/12 11:43:45;;;;;;;7.35;6.43;;;;;;;;;;5083941;28;20295;-85
2021/11/12 11:46:17;;;;;;;10.88;8.32;;;;;;;;;;5078202;28;20201;-85
2021/11/12 11:48:46;;;;;;;11.32;8.50;;;;;;;;;;5076604;28;20181;-85
2021/11/12 11:51:20;;;;;;;9.82;7.78;;;;;;;;;;5079100;28;20234;-85
2021/11/12 11:53:49;;;;;;;8.63;7.45;;;;;;;;;;5080023;28;20193;-84
2021/11/12 11:56:27;;;;;;;12.73;9.07;;;;;;;;;;5079552;28;20209;-85
2021/11/12 11:58:56;;;;;;;8.85;7.57;;;;;;;;;;5078594;28;20281;-85
2021/11/12 12:01:39;;;;;;;9.55;8.48;;;;;;;;;;5079363;28;20662;-84
2021/11/12 12:04:39;;;;;;;9.60;8.05;;;;;;;;;;5078801;28;20686;-84
2021/11/12 12:07:25;;;;;;;10.02;8.57;;;;;;;;;;5078237;28;20185;-86
2021/11/12 12:10:15;;;;;;;9.73;8.40;;;;;;;;;;5098415;28;20581;-85
2021/11/12 12:13:07;;;;;;;11.18;9.98;;;;;;;;;;5097869;28;20192;-86
2021/11/12 12:15:45;;;;;;;11.77;10.00;;;;;;;;;;5099255;28;20203;-85
2021/11/12 12:18:25;;;;;;;14.25;11.32;;;;;;;;;;5098696;28;20219;-85
2021/11/12 12:31:03;;;;;;;13.48;11.35;;;;;;;;;;5015794;28;20262;-86
2021/11/12 13:20:27;;;;;;;10.07;8.40;;;;;;;;;;5095269;28;20227;-85
2021/11/12 13:23:14;;;;;;;12.68;10.18;;;;;;;;;;5077415;28;20204;-85
2021/11/12 13:25:44;;;;;;;12.55;11.20;;;;;;;;;;5075445;28;20197;-85
2021/11/12 13:28:30;;;;;;;13.70;12.02;;;;;;;;;;5075981;28;20193;-85
2021/11/12 13:31:00;;;;;;;13.85;11.63;;;;;;;;;;5075093;28;20236;-85
2021/11/12 13:33:39;;;;;;;13.80;10.10;;;;;;;;;;5075785;28;20219;-86
2021/11/12 13:36:20;;;;;;;12.32;10.05;;;;;;;;;;5075526;28;20207;-85
2021/11/12 13:38:52;;;;;;;12.90;9.77;;;;;;;;;;5075083;28;20232;-85
2021/11/12 13:41:22;;;;;;;12.40;10.95;;;;;;;;;;5074862;28;20721;-85
2021/11/12 13:44:02;;;;;;;13.35;11.13;;;;;;;;;;5076553;28;20200;-85
2021/11/12 13:46:44;;;;;;;13.82;11.93;;;;;;;;;;5086111;28;20618;-86
2021/11/12 13:49:11;;;;;;;12.75;10.32;;;;;;;;;;5094349;28;20185;-86
2021/11/12 13:51:43;;;;;;;13.18;11.25;;;;;;;;;;5096313;28;20209;-86
2021/11/12 13:54:11;;;;;;;13.10;10.82;;;;;;;;;;5094572;28;20211;-85
2021/11/12 13:56:38;;;;;;;15.35;13.50;;;;;;;;;;5099304;28;20193;-86
2021/11/12 13:59:09;;;;;;;13.45;11.20;;;;;;;;;;5089295;28;20205;-85
2021/11/12 14:01:39;;;;;;;16.13;13.25;;;;;;;;;;5083721;28;20244;-86
2021/11/12 14:04:23;;;;;;;18.25;14.07;;;;;;;;;;5075690;28;20193;-85
2021/11/12 14:06:59;;;;;;;16.05;12.80;;;;;;;;;;5083867;28;20195;-87
2021/11/12 14:09:34;;;;;;;16.98;12.70;;;;;;;;;;5104117;28;20271;-86
2021/11/12 14:12:08;;;;;;;17.33;13.75;;;;;;;;;;5081956;28;20197;-85
2021/11/12 14:15:06;;;;;;;18.88;14.82;;;;;;;;;;5096291;28;20550;-85
2021/11/12 14:17:41;;;;;;;17.52;12.98;;;;;;;;;;5094332;28;20588;-84
2021/11/12 14:20:21;;;;;;;17.13;13.38;;;;;;;;;;5099960;28;20226;-84
2021/11/12 14:22:55;;;;;;;19.35;14.07;;;;;;;;;;5093919;28;20184;-85
2021/11/12 14:25:51;;;;;;;19.38;14.93;;;;;;;;;;5094262;28;20200;-85
2021/11/12 14:28:24;;;;;;;18.80;15.30;;;;;;;;;;5094215;28;20231;-84
2021/11/12 14:33:51;;;;;;;14.88;12.02;;;;;;;;;;5103333;28;20254;-87
2021/11/12 14:36:28;;;;;;;14.10;10.27;;;;;;;;;;5095958;28;20207;-86
2021/11/12 14:39:17;;;;;;;26.25;16.13;;;;;;;;;;5097388;28;20223;-87
2021/11/12 14:45:06;;;;;;;15.45;12.98;;;;;;;;;;5086770;28;20192;-85
2021/11/12 14:50:51;;;;;;;23.13;16.52;;;;;;;;;;5033707;28;20212;-87
2021/11/12 14:53:29;;;;;;;20.77;14.27;;;;;;;;;;5105200;28;20245;-85
2021/11/12 14:56:07;;;;;;;19.80;15.93;;;;;;;;;;5099531;28;20711;-85
2021/11/12 14:58:36;;;;;;;18.77;13.35;;;;;;;;;;5099048;28;20226;-85
2021/11/12 15:01:10;;;;;;;16.73;14.82;;;;;;;;;;5097515;28;20218;-85
2021/11/12 15:03:42;;;;;;;19.83;14.77;;;;;;;;;;5097341;28;20569;-84
2021/11/12 15:06:09;;;;;;;17.25;13.25;;;;;;;;;;5096820;28;20271;-85
2021/11/12 15:08:42;;;;;;;18.48;14.20;;;;;;;;;;5097206;28;20263;-85
2021/11/12 15:11:12;;;;;;;18.92;14.75;;;;;;;;;;5097307;28;20223;-85
2021/11/12 15:13:41;;;;;;;15.27;13.15;;;;;;;;;;5095134;28;20195;-83
2021/11/12 15:16:12;;;;;;;15.15;11.88;;;;;;;;;;5093078;28;20176;-83
2021/11/12 15:18:40;;;;;;;18.20;13.95;;;;;;;;;;5094117;28;20265;-83
2021/11/12 15:21:15;;;;;;;13.68;11.73;;;;;;;;;;5093845;28;20230;-84
2021/11/12 15:23:55;;;;;;;15.30;12.38;;;;;;;;;;5075423;28;20188;-84
2021/11/12 15:26:36;;;;;;;20.15;14.02;;;;;;;;;;5074691;28;20197;-84
2021/11/12 15:29:15;;;;;;;17.83;12.73;;;;;;;;;;5091405;28;20192;-84
2021/11/12 15:31:51;;;;;;;21.52;17.80;;;;;;;;;;5095186;28;20698;-86
2021/11/12 15:34:19;;;;;;;18.58;15.15;;;;;;;;;;5094320;28;20184;-85
2021/11/12 15:36:55;;;;;;;14.48;12.35;;;;;;;;;;5095314;28;20196;-87
2021/11/12 15:39:32;;;;;;;19.83;15.40;;;;;;;;;;5095355;28;20619;-86
2021/11/12 15:44:52;;;;;;;19.55;17.45;;;;;;;;;;5094839;28;20207;-86
2021/11/12 15:47:27;;;;;;;24.25;18.27;;;;;;;;;;5094983;28;20199;-85
2021/11/12 15:50:00;;;;;;;22.52;17.45;;;;;;;;;;5095021;28;20222;-85
2021/11/12 15:52:33;;;;;;;21.08;16.35;;;;;;;;;;5094608;28;20673;-86
2021/11/12 15:55:09;;;;;;;23.90;20.83;;;;;;;;;;5094355;28;20188;-86
2021/11/12 16:00:31;;;;;;;20.85;16.75;;;;;;;;;;5092524;28;20273;-85
2021/11/12 16:06:21;;;;;;;20.55;15.45;;;;;;;;;;5093535;28;20189;-86
2021/11/12 16:11:43;;;;;;;17.90;14.88;;;;;;;;;;5092131;28;20219;-85
2021/11/12 16:14:16;;;;;;;17.13;13.73;;;;;;;;;;5093591;28;20590;-86
2021/11/12 16:17:17;;;;;;;18.65;13.82;;;;;;;;;;5094122;28;20228;-84
2021/11/12 16:19:49;;;;;;;18.40;14.13;;;;;;;;;;5093536;28;20223;-85
2021/11/12 16:25:12;;;;;;;19.27;13.68;;;;;;;;;;5093601;28;20219;-87
2021/11/12 16:27:43;;;;;;;15.93;13.05;;;;;;;;;;5093101;28;20576;-86
2021/11/12 16:30:14;;;;;;;13.07;10.85;;;;;;;;;;5093333;28;20906;-86
2021/11/12 16:32:45;;;;;;;12.40;11.07;;;;;;;;;;5093701;28;20662;-86
2021/11/12 16:35:19;;;;;;;11.88;10.02;;;;;;;;;;5094013;28;20189;-86
2021/11/12 16:37:51;;;;;;;13.77;10.48;;;;;;;;;;5097843;28;20199;-84
2021/11/12 16:40:24;;;;;;;9.23;7.68;;;;;;;;;;5098285;28;20231;-86
2021/11/12 16:45:58;;;;;;;10.68;8.63;;;;;;;;;;5080820;28;20568;-86
2021/11/12 16:48:42;;;;;;;9.73;8.73;;;;;;;;;;5097439;28;20188;-86
2021/11/12 16:54:08;;;;;;;10.15;8.55;;;;;;;;;;5070805;28;20197;-84
2021/11/12 16:59:21;;;;;;;12.63;9.60;;;;;;;;;;5096815;28;20225;-85
2021/11/12 17:04:37;;;;;;;11.55;9.93;;;;;;;;;;5089063;28;20196;-84
2021/11/12 17:07:11;;;;;;;13.05;10.02;;;;;;;;;;5096555;28;20643;-85
2021/11/12 17:12:32;;;;;;;10.77;8.77;;;;;;;;;;5096764;28;20235;-87
2021/11/12 17:15:16;;;;;;;12.35;9.60;;;;;;;;;;5096720;28;20184;-86
2021/11/12 17:17:56;;;;;;;12.52;10.43;;;;;;;;;;5096482;28;20180;-84
2021/11/12 17:45:51;;;;;;;9.95;8.68;;;;;;;;;;5096535;28;20179;-86
2021/11/12 17:48:25;;;;;;;12.90;10.38;;;;;;;;;;5096484;28;20850;-86
2021/11/12 17:51:14;;;;;;;15.80;12.80;;;;;;;;;;5096102;28;20654;-86
2021/11/12 18:02:06;;;;;;;15.07;12.13;;;;;;;;;;5095880;28;20254;-87
2021/11/12 18:04:45;;;;;;;12.27;11.00;;;;;;;;;;5096277;28;20665;-88
2021/11/12 18:07:22;;;;;;;15.07;10.88;;;;;;;;;;5096371;28;20204;-87
2021/11/12 21:44:46;;;;;;;9.18;8.00;;;;;;;;;;5117011;28;20287;-85
2021/11/12 21:47:22;;;;;;;7.38;6.65;;;;;;;;;;5113775;28;20195;-85
2021/11/12 21:49:55;;;;;;;10.10;8.23;;;;;;;;;;5110390;28;20218;-84
2021/11/12 21:52:26;;;;;;;11.00;7.97;;;;;;;;;;5113382;28;20559;-82
2021/11/12 21:54:54;;;;;;;8.68;6.43;;;;;;;;;;5112107;28;20196;-84
2021/11/12 21:57:28;;;;;;;6.82;6.13;;;;;;;;;;5116118;28;20207;-87
2021/11/12 22:00:00;;;;;;;7.95;6.70;;;;;;;;;;5110982;28;20220;-85
2021/11/12 22:02:28;;;;;;;9.10;6.65;;;;;;;;;;5113202;28;20222;-85
2021/11/12 22:04:58;;;;;;;9.23;7.50;;;;;;;;;;5113722;28;20191;-83
2021/11/12 22:07:28;;;;;;;7.88;7.07;;;;;;;;;;5110618;28;20283;-84
2021/11/12 22:09:56;;;;;;;11.15;8.57;;;;;;;;;;5120135;28;20208;-85
2021/11/12 22:12:24;;;;;;;10.85;7.85;;;;;;;;;;5109513;28;20200;-85
2021/11/12 22:14:51;;;;;;;11.98;9.90;;;;;;;;;;5083391;28;20663;-87
2021/11/12 22:17:20;;;;;;;12.27;9.73;;;;;;;;;;5102665;28;20700;-83
2021/11/12 22:19:47;;;;;;;10.10;8.13;;;;;;;;;;5097621;28;20181;-84
2021/11/12 22:22:16;;;;;;;10.65;8.90;;;;;;;;;;5096209;28;20220;-82
2021/11/12 22:24:45;;;;;;;11.95;7.97;;;;;;;;;;5095424;28;20206;-83
2021/11/12 22:27:13;;;;;;;9.15;7.53;;;;;;;;;;5096577;28;20207;-82
2021/11/12 22:29:42;;;;;;;10.98;8.30;;;;;;;;;;5096929;28;20196;-81
2021/11/12 22:32:12;;;;;;;12.23;9.68;;;;;;;;;;5096131;28;20234;-82
2021/11/12 22:34:52;;;;;;;10.40;8.25;;;;;;;;;;5095121;28;20172;-83
2021/11/12 22:37:19;;;;;;;11.80;9.75;;;;;;;;;;5097540;28;20193;-82
2021/11/12 22:39:56;;;;;;;11.40;8.68;;;;;;;;;;5095911;28;20184;-83
2021/11/12 22:42:32;;;;;;;8.95;8.05;;;;;;;;;;5095865;28;20211;-82
2021/11/12 22:45:07;;;;;;;11.52;9.18;;;;;;;;;;5097206;28;20185;-81
2021/11/12 22:47:43;;;;;;;11.95;8.68;;;;;;;;;;5099251;28;20186;-83
2021/11/12 22:50:13;;;;;;;10.15;8.43;;;;;;;;;;5097404;28;20219;-82
2021/11/12 22:52:44;;;;;;;11.93;9.23;;;;;;;;;;5097552;28;20709;-82
2021/11/12 22:55:15;;;;;;;9.80;8.00;;;;;;;;;;5097954;28;20183;-82
2021/11/12 22:57:43;;;;;;;10.93;9.05;;;;;;;;;;5100509;28;20197;-82
2021/11/12 23:00:28;;;;;;;9.75;8.70;;;;;;;;;;5099242;28;20216;-83
2021/11/12 23:03:07;;;;;;;12.02;10.05;;;;;;;;;;5097131;28;20698;-83
2021/11/12 23:05:35;;;;;;;11.38;8.80;;;;;;;;;;5095366;28;20181;-82
2021/11/12 23:08:10;;;;;;;13.00;8.95;;;;;;;;;;5096444;28;20215;-83
2021/11/12 23:10:40;;;;;;;10.95;8.45;;;;;;;;;;5076851;28;20231;-82
2021/11/12 23:13:16;;;;;;;10.60;8.05;;;;;;;;;;5077756;28;20208;-82
2021/11/12 23:15:48;;;;;;;11.05;9.23;;;;;;;;;;5076894;28;20184;-82
2021/11/12 23:18:21;;;;;;;12.68;10.20;;;;;;;;;;5075830;28;20205;-82
2021/11/12 23:21:00;;;;;;;11.43;9.27;;;;;;;;;;5075920;28;20225;-84
2021/11/12 23:23:41;;;;;;;10.02;8.07;;;;;;;;;;5075582;28;20662;-82